Time;durP1;ratioP1;P1;durP2;ratioP2;P2;SDS_P1;SDS_P2;PMS_P1;PMS_P2;Temp;Humidity;BMP_temperature;BMP_pressure;BME280_temperature;BME280_humidity;BME280_pressure;Samples;Min_cycle;Max_cycle;Signal;HPM_P1;HPM_P2
2022/02/21 00:01:41;;;;;;;58.78;34.72;;;;;;;;;;6302753;28;20506;-66
2022/02/21 00:04:43;;;;;;;56.80;33.20;;;;;;;;;;6308210;28;20607;-67
2022/02/21 00:07:45;;;;;;;63.53;36.33;;;;;;;;;;6303374;28;20481;-66
2022/02/21 00:10:48;;;;;;;62.33;34.03;;;;;;;;;;6300359;28;20187;-67
2022/02/21 00:13:51;;;;;;;63.92;35.13;;;;;;;;;;6302892;28;20056;-66
2022/02/21 00:16:52;;;;;;;63.08;35.72;;;;;;;;;;6304778;28;20080;-66
2022/02/21 00:19:55;;;;;;;59.92;35.13;;;;;;;;;;6303564;28;20114;-66
2022/02/21 00:22:57;;;;;;;68.32;36.10;;;;;;;;;;6308358;28;20176;-66
2022/02/21 00:25:58;;;;;;;61.05;35.08;;;;;;;;;;6315403;28;20542;-67
2022/02/21 00:29:01;;;;;;;64.03;35.03;;;;;;;;;;6312471;28;20093;-66
2022/02/21 00:32:03;;;;;;;65.70;36.58;;;;;;;;;;6308620;28;20117;-66
2022/02/21 00:35:06;;;;;;;60.25;34.35;;;;;;;;;;6308843;28;20048;-66
2022/02/21 00:38:08;;;;;;;62.60;36.30;;;;;;;;;;6308111;28;20127;-66
2022/02/21 00:41:09;;;;;;;64.20;34.28;;;;;;;;;;6306505;28;20120;-67
2022/02/21 00:44:12;;;;;;;59.58;34.78;;;;;;;;;;6308568;28;20439;-67
2022/02/21 00:47:14;;;;;;;58.72;32.97;;;;;;;;;;6305372;28;20076;-66
2022/02/21 00:50:15;;;;;;;58.67;34.53;;;;;;;;;;6305204;28;20060;-67
2022/02/21 00:53:17;;;;;;;275.02;156.35;;;;;;;;;;6306836;28;20516;-69
2022/02/21 00:56:19;;;;;;;295.50;146.52;;;;;;;;;;6305215;28;20094;-69
2022/02/21 00:59:22;;;;;;;130.15;71.13;;;;;;;;;;6307083;28;20634;-68
2022/02/21 01:02:23;;;;;;;182.77;95.38;;;;;;;;;;6306642;28;20131;-69
2022/02/21 01:05:25;;;;;;;98.18;54.95;;;;;;;;;;6308706;28;20138;-69
2022/02/21 01:08:26;;;;;;;111.90;57.78;;;;;;;;;;6310733;28;20094;-69
2022/02/21 01:11:30;;;;;;;85.75;48.08;;;;;;;;;;6311985;28;20104;-67
2022/02/21 01:14:33;;;;;;;59.88;35.55;;;;;;;;;;6307831;28;20055;-66
2022/02/21 01:17:35;;;;;;;58.45;33.20;;;;;;;;;;6308935;28;20094;-67
2022/02/21 01:20:36;;;;;;;55.42;32.80;;;;;;;;;;6309802;28;20189;-66
2022/02/21 01:23:40;;;;;;;56.75;30.45;;;;;;;;;;6306726;28;20408;-67
2022/02/21 01:26:41;;;;;;;57.20;31.05;;;;;;;;;;6306923;28;20061;-66
2022/02/21 01:29:44;;;;;;;54.63;32.10;;;;;;;;;;6311247;28;20127;-66
2022/02/21 01:32:46;;;;;;;53.00;31.50;;;;;;;;;;6308825;28;20578;-66
2022/02/21 01:35:47;;;;;;;53.92;31.63;;;;;;;;;;6305000;28;20126;-67
2022/02/21 01:38:49;;;;;;;50.05;29.35;;;;;;;;;;6310783;28;20131;-66
2022/02/21 01:41:51;;;;;;;56.70;31.52;;;;;;;;;;6303695;28;20182;-66
2022/02/21 01:44:54;;;;;;;53.75;30.60;;;;;;;;;;6311252;28;20060;-66
2022/02/21 01:47:55;;;;;;;56.70;31.85;;;;;;;;;;6308211;28;20744;-66
2022/02/21 01:50:57;;;;;;;55.45;31.30;;;;;;;;;;6306079;28;20127;-67
2022/02/21 01:54:00;;;;;;;54.95;31.02;;;;;;;;;;6303876;28;20072;-66
2022/02/21 01:57:03;;;;;;;50.78;29.45;;;;;;;;;;6303646;28;20129;-66
2022/02/21 02:00:07;;;;;;;54.65;33.25;;;;;;;;;;6303182;28;20507;-66
2022/02/21 02:03:09;;;;;;;55.78;30.67;;;;;;;;;;6309049;28;20452;-67
2022/02/21 02:06:11;;;;;;;52.45;30.98;;;;;;;;;;6304794;28;20049;-67
2022/02/21 02:09:13;;;;;;;55.42;31.23;;;;;;;;;;6308134;28;20127;-66
2022/02/21 02:12:14;;;;;;;57.47;32.50;;;;;;;;;;6309400;28;20086;-69
2022/02/21 02:15:19;;;;;;;49.42;30.33;;;;;;;;;;6301177;28;20580;-68
2022/02/21 02:18:20;;;;;;;55.97;31.48;;;;;;;;;;6302914;28;20048;-68
2022/02/21 02:21:26;;;;;;;64.47;34.00;;;;;;;;;;6302989;28;20182;-66
2022/02/21 02:24:29;;;;;;;57.75;32.05;;;;;;;;;;6302352;28;20044;-68
2022/02/21 02:27:31;;;;;;;57.97;31.38;;;;;;;;;;6308143;28;20135;-68
2022/02/21 02:30:32;;;;;;;56.10;33.25;;;;;;;;;;6309359;28;20056;-69
2022/02/21 02:33:34;;;;;;;58.03;32.47;;;;;;;;;;6307122;28;20720;-68
2022/02/21 02:36:36;;;;;;;57.28;32.00;;;;;;;;;;6306039;28;20063;-68
2022/02/21 02:39:39;;;;;;;55.88;32.55;;;;;;;;;;6307816;28;20119;-68
2022/02/21 02:42:40;;;;;;;57.47;32.43;;;;;;;;;;6308100;28;20051;-68
2022/02/21 02:45:45;;;;;;;58.10;33.40;;;;;;;;;;6306089;28;20097;-67
2022/02/21 02:48:47;;;;;;;53.95;31.52;;;;;;;;;;6305999;28;20534;-68
2022/02/21 02:51:49;;;;;;;56.85;32.40;;;;;;;;;;6303196;28;20052;-69
2022/02/21 02:54:51;;;;;;;59.53;33.80;;;;;;;;;;6300683;28;20151;-67
2022/02/21 02:57:53;;;;;;;55.10;32.80;;;;;;;;;;6300356;28;20127;-67
2022/02/21 03:00:55;;;;;;;59.53;33.25;;;;;;;;;;6307444;28;20079;-66
2022/02/21 03:03:56;;;;;;;57.35;33.65;;;;;;;;;;6304737;28;20075;-65
2022/02/21 03:07:00;;;;;;;55.40;31.80;;;;;;;;;;6306588;28;20587;-65
2022/02/21 03:10:04;;;;;;;56.38;31.98;;;;;;;;;;6304161;28;20052;-64
2022/02/21 03:13:05;;;;;;;51.38;30.60;;;;;;;;;;6313170;28;20125;-66
2022/02/21 03:16:07;;;;;;;54.30;30.52;;;;;;;;;;6308104;28;20504;-66
2022/02/21 03:19:09;;;;;;;50.55;30.02;;;;;;;;;;6312345;28;20048;-64
2022/02/21 03:22:10;;;;;;;50.17;27.08;;;;;;;;;;6307135;28;20068;-63
2022/02/21 03:25:14;;;;;;;41.47;24.98;;;;;;;;;;6306941;28;20072;-64
2022/02/21 03:28:16;;;;;;;49.15;26.08;;;;;;;;;;6305317;28;20044;-66
2022/02/21 03:31:17;;;;;;;37.70;23.67;;;;;;;;;;6306483;28;20117;-65
2022/02/21 03:34:19;;;;;;;40.42;23.58;;;;;;;;;;6304356;28;20163;-66
2022/02/21 03:37:20;;;;;;;37.72;21.88;;;;;;;;;;6303862;28;20127;-66
2022/02/21 03:40:23;;;;;;;35.83;20.52;;;;;;;;;;6308577;28;20067;-66
2022/02/21 03:43:25;;;;;;;31.75;19.23;;;;;;;;;;6300673;28;20075;-66
2022/02/21 03:46:27;;;;;;;31.45;18.45;;;;;;;;;;6301662;28;20632;-66
2022/02/21 03:49:28;;;;;;;29.80;18.15;;;;;;;;;;6313797;28;20044;-63
2022/02/21 03:52:31;;;;;;;31.30;18.23;;;;;;;;;;6305958;28;20094;-63
2022/02/21 03:55:34;;;;;;;32.10;18.85;;;;;;;;;;6305975;28;20178;-64
2022/02/21 03:58:35;;;;;;;28.90;17.52;;;;;;;;;;6311610;28;20127;-66
2022/02/21 04:01:37;;;;;;;29.38;17.65;;;;;;;;;;6313826;28;20137;-65
2022/02/21 04:04:38;;;;;;;28.83;17.98;;;;;;;;;;6310058;28;20133;-66
2022/02/21 04:07:42;;;;;;;27.38;16.77;;;;;;;;;;6315577;28;20404;-65
2022/02/21 04:10:45;;;;;;;28.37;17.93;;;;;;;;;;6311651;28;20048;-66
2022/02/21 04:13:46;;;;;;;30.02;17.85;;;;;;;;;;6305946;28;20480;-65
2022/02/21 04:16:48;;;;;;;29.00;17.13;;;;;;;;;;6302955;28;20067;-65
2022/02/21 04:19:49;;;;;;;28.65;17.50;;;;;;;;;;6304310;28;20485;-65
2022/02/21 04:22:51;;;;;;;29.08;18.55;;;;;;;;;;6314189;28;20507;-65
2022/02/21 04:25:54;;;;;;;29.92;18.02;;;;;;;;;;6319697;28;20163;-66
2022/02/21 04:28:56;;;;;;;30.45;18.30;;;;;;;;;;6318360;28;20040;-66
2022/02/21 04:31:57;;;;;;;32.58;19.85;;;;;;;;;;6314799;28;20120;-65
2022/02/21 04:34:59;;;;;;;35.38;20.02;;;;;;;;;;6316297;28;20449;-65
2022/02/21 04:38:01;;;;;;;38.00;24.10;;;;;;;;;;6313494;28;20178;-66
2022/02/21 04:41:04;;;;;;;48.72;26.88;;;;;;;;;;6311991;28;20044;-65
2022/02/21 04:44:05;;;;;;;47.30;26.08;;;;;;;;;;6306755;28;20526;-65
2022/02/21 04:47:08;;;;;;;49.08;28.58;;;;;;;;;;6308419;28;20071;-66
2022/02/21 04:50:10;;;;;;;49.75;28.08;;;;;;;;;;6306641;28;20066;-65
2022/02/21 04:53:12;;;;;;;52.70;29.90;;;;;;;;;;6306118;28;20520;-66
2022/02/21 04:56:15;;;;;;;56.38;29.23;;;;;;;;;;6310317;28;20127;-66
2022/02/21 04:59:17;;;;;;;50.33;28.77;;;;;;;;;;6311068;28;20137;-65
2022/02/21 05:02:18;;;;;;;46.53;26.50;;;;;;;;;;6309964;28;20067;-66
2022/02/21 05:05:20;;;;;;;49.75;28.67;;;;;;;;;;6316729;28;20075;-66
2022/02/21 05:08:21;;;;;;;47.13;27.60;;;;;;;;;;6315060;28;20064;-68
2022/02/21 05:11:24;;;;;;;54.75;27.35;;;;;;;;;;6315221;28;20124;-65
2022/02/21 05:14:26;;;;;;;51.30;26.52;;;;;;;;;;6310398;28;20505;-65
2022/02/21 05:17:27;;;;;;;47.13;25.23;;;;;;;;;;6308942;28;20069;-65
2022/02/21 05:20:29;;;;;;;44.50;23.60;;;;;;;;;;6304558;28;20055;-66
2022/02/21 05:23:31;;;;;;;35.42;19.80;;;;;;;;;;6308285;28;20044;-65
2022/02/21 05:26:34;;;;;;;36.03;20.35;;;;;;;;;;6303372;28;20403;-66
2022/02/21 05:29:35;;;;;;;39.23;22.67;;;;;;;;;;6311212;28;20055;-65
2022/02/21 05:32:37;;;;;;;44.90;27.33;;;;;;;;;;6307160;28;20177;-65
2022/02/21 05:35:39;;;;;;;44.45;26.17;;;;;;;;;;6309561;28;20068;-66
2022/02/21 05:38:40;;;;;;;46.13;25.80;;;;;;;;;;6307780;28;20117;-65
2022/02/21 05:41:43;;;;;;;37.83;22.60;;;;;;;;;;6311422;28;20044;-65
2022/02/21 05:44:45;;;;;;;41.38;22.92;;;;;;;;;;6306655;28;20047;-65
2022/02/21 05:47:46;;;;;;;36.75;22.65;;;;;;;;;;6303570;28;20122;-66
2022/02/21 05:50:48;;;;;;;42.78;24.15;;;;;;;;;;6310675;28;20480;-65
2022/02/21 05:53:50;;;;;;;45.63;24.92;;;;;;;;;;6308899;28;20072;-65
2022/02/21 05:56:54;;;;;;;45.55;25.58;;;;;;;;;;6306968;28;20531;-65
2022/02/21 05:59:56;;;;;;;44.97;24.92;;;;;;;;;;6304822;28;20127;-65
2022/02/21 06:02:57;;;;;;;40.92;23.95;;;;;;;;;;6303824;28;20041;-66
2022/02/21 06:05:59;;;;;;;40.95;23.83;;;;;;;;;;6301960;28;20056;-65
2022/02/21 06:09:01;;;;;;;43.38;25.98;;;;;;;;;;6310374;28;20190;-66
2022/02/21 06:12:05;;;;;;;51.53;27.92;;;;;;;;;;6310088;28;20060;-64
2022/02/21 06:15:08;;;;;;;51.50;27.92;;;;;;;;;;6307091;28;20093;-65
2022/02/21 06:18:10;;;;;;;52.00;30.38;;;;;;;;;;6309670;28;20507;-65
2022/02/21 06:21:12;;;;;;;53.03;30.02;;;;;;;;;;6303343;28;20126;-66
2022/02/21 06:24:13;;;;;;;49.60;29.77;;;;;;;;;;6307973;28;20488;-65
2022/02/21 06:27:16;;;;;;;55.65;30.45;;;;;;;;;;6305224;28;20480;-65
2022/02/21 06:30:18;;;;;;;54.45;30.70;;;;;;;;;;6306688;28;20169;-66
2022/02/21 06:33:19;;;;;;;54.53;31.73;;;;;;;;;;6304998;28;20131;-65
2022/02/21 06:36:21;;;;;;;59.30;31.95;;;;;;;;;;6302465;28;20612;-66
2022/02/21 06:39:22;;;;;;;56.30;30.42;;;;;;;;;;6306933;28;20181;-65
2022/02/21 06:42:25;;;;;;;58.63;32.10;;;;;;;;;;6308081;28;20044;-64
2022/02/21 06:45:27;;;;;;;57.67;32.50;;;;;;;;;;6306757;28;20135;-65
2022/02/21 06:48:28;;;;;;;59.47;31.15;;;;;;;;;;6308141;28;20056;-65
2022/02/21 06:51:30;;;;;;;60.00;33.45;;;;;;;;;;6303673;28;20127;-65
2022/02/21 06:54:31;;;;;;;62.42;33.47;;;;;;;;;;6305734;28;20132;-66
2022/02/21 06:57:34;;;;;;;61.80;31.55;;;;;;;;;;6305078;28;20131;-66
2022/02/21 07:00:36;;;;;;;65.68;35.47;;;;;;;;;;6307375;28;20124;-65
2022/02/21 07:03:38;;;;;;;67.60;34.92;;;;;;;;;;6303886;28;20051;-65
2022/02/21 07:06:39;;;;;;;64.22;35.85;;;;;;;;;;6305340;28;20127;-65
2022/02/21 07:09:41;;;;;;;67.28;36.35;;;;;;;;;;6304194;28;20090;-65
2022/02/21 07:12:44;;;;;;;59.83;35.42;;;;;;;;;;6300110;28;20152;-64
2022/02/21 07:15:45;;;;;;;66.45;35.75;;;;;;;;;;6302698;28;20123;-65
2022/02/21 07:18:47;;;;;;;67.57;35.75;;;;;;;;;;6309374;28;20528;-65
2022/02/21 07:21:49;;;;;;;65.40;35.75;;;;;;;;;;6302332;28;20176;-64
2022/02/21 07:24:50;;;;;;;62.15;34.08;;;;;;;;;;6303688;28;20127;-65
2022/02/21 07:27:54;;;;;;;62.55;34.78;;;;;;;;;;6301419;28;20123;-65
2022/02/21 07:30:55;;;;;;;64.43;35.72;;;;;;;;;;6300768;28;20056;-65
2022/02/21 07:33:57;;;;;;;66.57;34.55;;;;;;;;;;6300570;28;20131;-65
2022/02/21 07:36:58;;;;;;;60.50;35.63;;;;;;;;;;6300020;28;20078;-65
2022/02/21 07:40:00;;;;;;;60.65;34.20;;;;;;;;;;6299035;28;20127;-64
2022/02/21 07:43:03;;;;;;;57.95;34.25;;;;;;;;;;6303749;28;20183;-65
2022/02/21 07:46:04;;;;;;;62.17;34.88;;;;;;;;;;6302037;28;20230;-66
2022/02/21 07:49:06;;;;;;;55.63;33.55;;;;;;;;;;6311597;28;20040;-65
2022/02/21 07:52:08;;;;;;;58.78;32.90;;;;;;;;;;6306048;28;20102;-64
2022/02/21 07:55:10;;;;;;;61.22;33.50;;;;;;;;;;6310396;28;20077;-65
2022/02/21 07:58:12;;;;;;;56.42;33.60;;;;;;;;;;6308378;28;20068;-64
2022/02/21 08:01:14;;;;;;;54.92;32.63;;;;;;;;;;6307929;28;20135;-65
2022/02/21 08:04:16;;;;;;;52.47;31.98;;;;;;;;;;6305021;28;20121;-65
2022/02/21 08:07:17;;;;;;;54.63;31.50;;;;;;;;;;6303759;28;20151;-65
2022/02/21 08:10:19;;;;;;;51.88;30.70;;;;;;;;;;6301403;28;20115;-65
2022/02/21 08:13:22;;;;;;;54.88;31.52;;;;;;;;;;6298646;28;20131;-65
2022/02/21 08:16:23;;;;;;;51.90;31.33;;;;;;;;;;6297504;28;20070;-65
2022/02/21 08:19:25;;;;;;;52.85;31.50;;;;;;;;;;6295493;28;20452;-65
2022/02/21 08:22:26;;;;;;;46.13;28.35;;;;;;;;;;6295853;28;20086;-65
2022/02/21 08:25:28;;;;;;;57.50;32.45;;;;;;;;;;6303899;28;20139;-65
2022/02/21 08:28:31;;;;;;;50.22;30.13;;;;;;;;;;6306923;28;20240;-65
2022/02/21 08:31:32;;;;;;;56.80;32.47;;;;;;;;;;6312607;28;20127;-65
2022/02/21 08:34:34;;;;;;;50.13;29.60;;;;;;;;;;6310069;28;20136;-64
2022/02/21 08:37:36;;;;;;;52.88;32.10;;;;;;;;;;6307407;28;20055;-65
2022/02/21 08:40:38;;;;;;;48.40;29.35;;;;;;;;;;6307056;28;20215;-65
2022/02/21 08:43:41;;;;;;;45.33;27.52;;;;;;;;;;6303832;28;20422;-65
2022/02/21 08:46:44;;;;;;;49.75;29.55;;;;;;;;;;6289950;28;20485;-65
2022/02/21 08:49:46;;;;;;;46.33;28.37;;;;;;;;;;6304871;28;20131;-65
2022/02/21 08:52:48;;;;;;;48.55;27.85;;;;;;;;;;6306088;28;20133;-65
2022/02/21 08:55:49;;;;;;;42.78;25.40;;;;;;;;;;6301991;28;20048;-65
2022/02/21 08:58:52;;;;;;;30.85;15.50;;;;;;;;;;6297965;28;20044;-65
2022/02/21 09:01:53;;;;;;;25.20;14.18;;;;;;;;;;6306756;28;20198;-65
2022/02/21 09:04:55;;;;;;;28.08;14.10;;;;;;;;;;6312586;28;20116;-64
2022/02/21 09:07:57;;;;;;;25.88;16.73;;;;;;;;;;6314971;28;20048;-64
2022/02/21 09:10:58;;;;;;;22.05;12.80;;;;;;;;;;6311826;28;20121;-65
2022/02/21 09:14:01;;;;;;;21.85;12.65;;;;;;;;;;6310980;28;20049;-68
2022/02/21 09:17:03;;;;;;;19.23;11.52;;;;;;;;;;6303559;28;20174;-62
2022/02/21 09:20:06;;;;;;;22.05;11.30;;;;;;;;;;6305442;28;20105;-64
2022/02/21 09:23:07;;;;;;;24.88;11.77;;;;;;;;;;6304626;28;20040;-64
2022/02/21 09:26:09;;;;;;;20.40;11.65;;;;;;;;;;6306161;28;20127;-64
2022/02/21 09:29:12;;;;;;;23.77;11.93;;;;;;;;;;6304697;28;20120;-64
2022/02/21 09:32:14;;;;;;;22.87;11.30;;;;;;;;;;6304665;28;20093;-64
2022/02/21 09:35:15;;;;;;;21.25;11.13;;;;;;;;;;6308154;28;20494;-64
2022/02/21 09:38:17;;;;;;;16.52;10.00;;;;;;;;;;6304929;28;20610;-67
2022/02/21 09:41:20;;;;;;;20.00;10.48;;;;;;;;;;6309854;28;20120;-64
2022/02/21 09:44:23;;;;;;;18.20;9.70;;;;;;;;;;6308145;28;20137;-64
2022/02/21 09:47:24;;;;;;;20.05;10.52;;;;;;;;;;6310423;28;20120;-65
2022/02/21 09:50:27;;;;;;;27.95;12.02;;;;;;;;;;6309495;28;20044;-64
2022/02/21 09:53:30;;;;;;;19.00;9.82;;;;;;;;;;6308597;28;20070;-65
2022/02/21 09:56:31;;;;;;;23.02;10.95;;;;;;;;;;6306554;28;20507;-68
2022/02/21 09:59:35;;;;;;;20.92;11.13;;;;;;;;;;6304195;28;20747;-65
2022/02/21 10:02:36;;;;;;;21.75;11.00;;;;;;;;;;6302933;28;20067;-67
2022/02/21 10:05:38;;;;;;;25.85;11.63;;;;;;;;;;6301602;28;20044;-65
2022/02/21 10:08:50;;;;;;;22.40;11.00;;;;;;;;;;6300309;28;20072;-65
2022/02/21 10:11:54;;;;;;;18.40;9.95;;;;;;;;;;6303193;28;20193;-65
2022/02/21 10:14:57;;;;;;;;;;;;;;;;;;6306093;28;20397;-65
2022/02/21 10:18:13;;;;;;;19.30;10.07;;;;;;;;;;6302656;28;20294;-66
2022/02/21 10:21:14;;;;;;;19.42;10.68;;;;;;;;;;6302076;28;20084;-65
2022/02/21 10:24:16;;;;;;;22.45;11.13;;;;;;;;;;6308010;28;20075;-64
2022/02/21 10:27:19;;;;;;;20.48;11.70;;;;;;;;;;6307252;28;20052;-63
2022/02/21 10:30:22;;;;;;;24.95;11.85;;;;;;;;;;6307044;28;20121;-65
2022/02/21 10:33:24;;;;;;;18.00;9.63;;;;;;;;;;6302903;28;20139;-65
2022/02/21 10:36:33;;;;;;;17.73;8.23;;;;;;;;;;6298463;28;20201;-66
2022/02/21 10:39:35;;;;;;;14.23;7.43;;;;;;;;;;6301601;27;20127;-65
2022/02/21 10:42:36;;;;;;;23.38;7.47;;;;;;;;;;6303844;28;20048;-65
2022/02/21 10:45:41;;;;;;;17.40;7.95;;;;;;;;;;6308456;28;20040;-65
2022/02/21 10:48:44;;;;;;;15.55;6.93;;;;;;;;;;6307710;28;20150;-66
2022/02/21 10:51:47;;;;;;;15.20;8.15;;;;;;;;;;6309105;28;20052;-66
2022/02/21 10:54:49;;;;;;;19.25;7.93;;;;;;;;;;6303657;28;20055;-67
2022/02/21 10:57:50;;;;;;;15.25;7.03;;;;;;;;;;6304595;28;20147;-67
2022/02/21 11:00:55;;;;;;;14.48;8.38;;;;;;;;;;6309739;28;20135;-66
2022/02/21 11:03:57;;;;;;;17.50;7.68;;;;;;;;;;6301797;28;20556;-65
2022/02/21 11:06:59;;;;;;;11.38;7.00;;;;;;;;;;6306311;28;20120;-65
2022/02/21 11:10:03;;;;;;;13.13;8.05;;;;;;;;;;6302050;28;20189;-65
2022/02/21 11:13:05;;;;;;;;;;;;;;;;;;6302023;28;20048;-63
2022/02/21 11:16:08;;;;;;;7.50;5.57;;;;;;;;;;6303101;28;19999;-63
2022/02/21 11:19:09;;;;;;;18.08;5.70;;;;;;;;;;6303355;28;20121;-65
2022/02/21 11:22:11;;;;;;;10.07;5.20;;;;;;;;;;6306022;28;20484;-68
2022/02/21 11:25:19;;;;;;;9.68;4.13;;;;;;;;;;6306917;28;20593;-66
2022/02/21 11:28:23;;;;;;;7.10;4.70;;;;;;;;;;6306184;28;20051;-64
2022/02/21 11:31:30;;;;;;;8.10;4.90;;;;;;;;;;6304047;28;20129;-66
2022/02/21 11:34:41;;;;;;;8.32;4.20;;;;;;;;;;6302926;28;20514;-64
2022/02/21 11:37:43;;;;;;;7.47;3.15;;;;;;;;;;6303685;28;20074;-66
2022/02/21 11:40:55;;;;;;;4.65;2.88;;;;;;;;;;6308952;28;20174;-65
2022/02/21 11:43:57;;;;;;;4.88;2.40;;;;;;;;;;6310740;28;20552;-65
2022/02/21 11:47:09;;;;;;;2.90;2.05;;;;;;;;;;6313790;28;20048;-65
2022/02/21 11:50:24;;;;;;;5.53;2.20;;;;;;;;;;6315548;28;20573;-65
2022/02/21 11:53:29;;;;;;;4.45;2.17;;;;;;;;;;6311442;28;20504;-65
2022/02/21 11:56:58;;;;;;;5.88;2.63;;;;;;;;;;6304915;28;20528;-65
2022/02/21 12:00:35;;;;;;;9.32;2.40;;;;;;;;;;6308631;28;20048;-65
2022/02/21 12:03:38;;;;;;;3.92;1.58;;;;;;;;;;6309868;28;20258;-63
2022/02/21 12:06:50;;;;;;;5.13;1.60;;;;;;;;;;6309782;28;20501;-66
2022/02/21 12:10:24;;;;;;;4.85;1.40;;;;;;;;;;6308954;28;20507;-65
2022/02/21 12:13:25;;;;;;;42.70;5.20;;;;;;;;;;6312579;28;20460;-65
2022/02/21 12:16:27;;;;;;;4.60;1.20;;;;;;;;;;6312271;28;20176;-63
2022/02/21 12:19:31;;;;;;;2.45;0.90;;;;;;;;;;6305970;28;20132;-63
2022/02/21 12:22:33;;;;;;;24.23;4.47;;;;;;;;;;6301122;28;20060;-64
2022/02/21 12:25:39;;;;;;;27.27;3.33;;;;;;;;;;6305999;28;20518;-64
2022/02/21 12:28:41;;;;;;;13.45;2.33;;;;;;;;;;6305508;28;20041;-63
2022/02/21 12:31:44;;;;;;;9.50;1.45;;;;;;;;;;6313661;28;20072;-63
2022/02/21 12:34:49;;;;;;;6.45;1.38;;;;;;;;;;6305621;28;20063;-66
2022/02/21 12:37:51;;;;;;;37.55;4.88;;;;;;;;;;6306508;28;20050;-65
2022/02/21 12:41:04;;;;;;;9.20;0.98;;;;;;;;;;6308657;28;20109;-65
2022/02/21 12:44:07;;;;;;;5.50;0.70;;;;;;;;;;6305635;28;20209;-65
2022/02/21 12:47:09;;;;;;;2.85;0.60;;;;;;;;;;6308411;28;20055;-64
2022/02/21 12:50:12;;;;;;;6.55;0.85;;;;;;;;;;6308841;28;20178;-66
2022/02/21 12:53:13;;;;;;;;;;;;;;;;;;6310190;28;20052;-67
2022/02/21 12:56:15;;;;;;;9.45;0.88;;;;;;;;;;6307155;28;20041;-67
2022/02/21 12:59:18;;;;;;;2.08;0.50;;;;;;;;;;6300879;28;20052;-66
2022/02/21 13:02:21;;;;;;;1.75;0.70;;;;;;;;;;6305841;28;20537;-64
2022/02/21 13:05:26;;;;;;;3.17;0.70;;;;;;;;;;6315233;28;20528;-66
2022/02/21 13:08:36;;;;;;;8.10;1.02;;;;;;;;;;6316419;28;20425;-66
2022/02/21 13:11:39;;;;;;;2.70;0.40;;;;;;;;;;6314391;28;20063;-65
2022/02/21 13:14:40;;;;;;;;;;;;;;;;;;6309913;28;20055;-65
2022/02/21 13:17:42;;;;;;;4.35;1.00;;;;;;;;;;6310265;28;20015;-65
2022/02/21 13:20:48;;;;;;;4.95;0.85;;;;;;;;;;6308950;28;20040;-66
2022/02/21 13:23:50;;;;;;;4.38;1.00;;;;;;;;;;6309185;28;20551;-63
2022/02/21 13:26:52;;;;;;;6.90;0.70;;;;;;;;;;6307053;28;20107;-65
2022/02/21 13:29:55;;;;;;;7.47;0.55;;;;;;;;;;6305612;28;20052;-65
2022/02/21 13:33:10;;;;;;;2.47;0.40;;;;;;;;;;6307075;28;20127;-66
2022/02/21 13:36:13;;;;;;;0.80;0.30;;;;;;;;;;6306718;28;20048;-65
2022/02/21 13:39:22;;;;;;;2.17;0.38;;;;;;;;;;6309828;28;20055;-64
2022/02/21 13:42:31;;;;;;;3.47;1.08;;;;;;;;;;6309131;28;20131;-64
2022/02/21 13:45:34;;;;;;;2.72;0.35;;;;;;;;;;6299191;28;20358;-62
2022/02/21 13:48:44;;;;;;;2.00;0.40;;;;;;;;;;6307916;28;20134;-62
2022/02/21 13:51:47;;;;;;;95.13;57.83;;;;;;;;;;6309372;28;20056;-64
2022/02/21 13:54:49;;;;;;;13.57;6.53;;;;;;;;;;6306231;28;20040;-64
2022/02/21 13:58:02;;;;;;;16.55;8.65;;;;;;;;;;6306555;28;20044;-64
2022/02/21 14:01:08;;;;;;;3.53;0.50;;;;;;;;;;6308203;28;20063;-66
2022/02/21 14:04:19;;;;;;;76.68;44.08;;;;;;;;;;6302652;28;20469;-63
2022/02/21 14:07:22;;;;;;;11.38;2.53;;;;;;;;;;6302770;28;20071;-65
2022/02/21 14:10:24;;;;;;;2.13;0.90;;;;;;;;;;6300446;28;20115;-64
2022/02/21 14:13:25;;;;;;;5.15;3.05;;;;;;;;;;6300105;28;20084;-64
2022/02/21 14:16:28;;;;;;;11.82;2.25;;;;;;;;;;6303047;28;20101;-64
2022/02/21 14:19:30;;;;;;;12.07;5.25;;;;;;;;;;6308524;28;20330;-62
2022/02/21 14:22:32;;;;;;;2.40;0.50;;;;;;;;;;6307943;28;20070;-65
2022/02/21 14:25:34;;;;;;;6.68;0.88;;;;;;;;;;6310322;28;20093;-65
2022/02/21 14:28:36;;;;;;;0.70;0.25;;;;;;;;;;6309960;28;20111;-65
2022/02/21 14:31:37;;;;;;;2.70;0.47;;;;;;;;;;6307123;28;20132;-66
2022/02/21 14:34:39;;;;;;;0.57;0.30;;;;;;;;;;6314245;28;20173;-65
2022/02/21 14:37:42;;;;;;;1.48;0.30;;;;;;;;;;6312666;28;20048;-65
2022/02/21 14:40:44;;;;;;;3.22;0.30;;;;;;;;;;6305411;28;20123;-65
2022/02/21 14:43:45;;;;;;;1.98;0.40;;;;;;;;;;6303238;28;20056;-64
2022/02/21 14:46:47;;;;;;;0.32;0.25;;;;;;;;;;6298198;28;20127;-65
2022/02/21 14:49:49;;;;;;;3.58;0.40;;;;;;;;;;6305771;28;20117;-65
2022/02/21 14:52:52;;;;;;;1.67;0.30;;;;;;;;;;6307439;28;20131;-64
2022/02/21 14:55:53;;;;;;;1.02;0.30;;;;;;;;;;6305681;28;20565;-64
2022/02/21 14:58:56;;;;;;;1.42;0.50;;;;;;;;;;6303897;28;20123;-64
2022/02/21 15:01:57;;;;;;;2.58;0.30;;;;;;;;;;6301397;28;20467;-64
2022/02/21 15:04:59;;;;;;;0.88;0.43;;;;;;;;;;6304401;28;20172;-65
2022/02/21 15:08:02;;;;;;;0.70;0.40;;;;;;;;;;6309349;28;20080;-64
2022/02/21 15:11:04;;;;;;;;;;;;;;;;;;6308792;28;20052;-65
2022/02/21 15:14:08;;;;;;;1.92;0.30;;;;;;;;;;6314326;28;19963;-64
2022/02/21 15:17:10;;;;;;;1.30;0.40;;;;;;;;;;6314887;28;20126;-66
2022/02/21 15:20:12;;;;;;;2.47;0.50;;;;;;;;;;6309833;28;20358;-64
2022/02/21 15:23:15;;;;;;;1.25;0.45;;;;;;;;;;6296485;28;20072;-64
2022/02/21 15:26:17;;;;;;;3.00;0.40;;;;;;;;;;6315395;28;20109;-64
2022/02/21 15:29:18;;;;;;;1.70;0.77;;;;;;;;;;6313382;28;20165;-66
2022/02/21 15:32:20;;;;;;;1.80;0.60;;;;;;;;;;6311581;28;20143;-64
2022/02/21 15:35:21;;;;;;;1.75;0.40;;;;;;;;;;6310960;28;20356;-66
2022/02/21 15:38:24;;;;;;;3.10;0.75;;;;;;;;;;6308760;28;20503;-65
2022/02/21 15:41:26;;;;;;;6.97;0.88;;;;;;;;;;6312181;28;20059;-63
2022/02/21 15:44:28;;;;;;;2.53;0.90;;;;;;;;;;6312980;28;20218;-64
2022/02/21 15:47:29;;;;;;;4.00;0.50;;;;;;;;;;6312529;28;20131;-63
2022/02/21 15:50:31;;;;;;;5.35;0.47;;;;;;;;;;6313325;28;20039;-64
2022/02/21 15:53:35;;;;;;;0.95;0.50;;;;;;;;;;6308753;28;20047;-65
2022/02/21 15:56:37;;;;;;;3.55;0.98;;;;;;;;;;6307726;28;20135;-64
2022/02/21 15:59:38;;;;;;;4.97;0.50;;;;;;;;;;6305249;28;20495;-64
2022/02/21 16:02:40;;;;;;;3.40;0.93;;;;;;;;;;6309654;28;20139;-64
2022/02/21 16:05:42;;;;;;;2.22;0.45;;;;;;;;;;6312815;28;20068;-64
2022/02/21 16:08:45;;;;;;;4.15;0.68;;;;;;;;;;6307900;28;20079;-64
2022/02/21 16:11:47;;;;;;;6.40;0.80;;;;;;;;;;6313555;28;20048;-65
2022/02/21 16:14:48;;;;;;;1.73;0.45;;;;;;;;;;6313484;28;20040;-65
2022/02/21 16:17:50;;;;;;;4.88;0.60;;;;;;;;;;6316219;28;20487;-65
2022/02/21 16:20:51;;;;;;;0.50;0.20;;;;;;;;;;6311405;28;20472;-66
2022/02/21 16:23:54;;;;;;;0.93;0.40;;;;;;;;;;6305612;28;20049;-66
2022/02/21 16:26:56;;;;;;;1.65;0.38;;;;;;;;;;6320290;28;20504;-65
2022/02/21 16:29:58;;;;;;;2.65;0.40;;;;;;;;;;6315518;28;20080;-65
2022/02/21 16:33:00;;;;;;;0.70;0.40;;;;;;;;;;6310377;28;20480;-65
2022/02/21 16:36:01;;;;;;;0.35;0.20;;;;;;;;;;6307265;28;20169;-66
2022/02/21 16:39:04;;;;;;;48.92;38.05;;;;;;;;;;6307434;28;20059;-66
2022/02/21 16:42:07;;;;;;;35.78;21.77;;;;;;;;;;6306965;28;20076;-66
2022/02/21 16:45:10;;;;;;;14.20;8.65;;;;;;;;;;6306953;28;20121;-65
2022/02/21 16:48:11;;;;;;;4.47;0.50;;;;;;;;;;6308047;28;20044;-65
2022/02/21 16:51:13;;;;;;;2.55;0.50;;;;;;;;;;6307049;28;20563;-65
2022/02/21 16:54:16;;;;;;;1.85;0.40;;;;;;;;;;6313516;28;20147;-66
2022/02/21 16:57:18;;;;;;;2.72;0.35;;;;;;;;;;6319068;28;20055;-63
2022/02/21 17:00:22;;;;;;;3.38;0.35;;;;;;;;;;6316891;28;20127;-64
2022/02/21 17:03:23;;;;;;;1.30;0.40;;;;;;;;;;6310779;28;20131;-64
2022/02/21 17:06:25;;;;;;;3.78;0.90;;;;;;;;;;6303698;28;20123;-64
2022/02/21 17:09:28;;;;;;;1.70;0.90;;;;;;;;;;6312292;28;20133;-63
2022/02/21 17:12:30;;;;;;;3.47;0.60;;;;;;;;;;6310713;28;20701;-63
2022/02/21 17:15:32;;;;;;;1.40;0.52;;;;;;;;;;6307190;28;20072;-65
2022/02/21 17:18:34;;;;;;;0.98;0.40;;;;;;;;;;6310361;28;20169;-63
2022/02/21 17:21:35;;;;;;;1.13;0.50;;;;;;;;;;6307924;28;20276;-65
2022/02/21 17:24:38;;;;;;;2.72;0.55;;;;;;;;;;6305861;28;20139;-64
2022/02/21 17:27:40;;;;;;;2.78;0.68;;;;;;;;;;6304453;28;20128;-63
2022/02/21 17:30:42;;;;;;;1.50;0.50;;;;;;;;;;6305539;28;20683;-63
2022/02/21 17:33:44;;;;;;;1.55;0.40;;;;;;;;;;6304882;28;20192;-67
2022/02/21 17:36:45;;;;;;;1.33;0.40;;;;;;;;;;6309972;28;20166;-64
2022/02/21 17:39:48;;;;;;;1.27;0.40;;;;;;;;;;6307494;28;20082;-64
2022/02/21 17:42:50;;;;;;;1.10;0.50;;;;;;;;;;6309094;28;20093;-63
2022/02/21 17:45:51;;;;;;;2.15;0.43;;;;;;;;;;6311358;28;20077;-64
2022/02/21 17:48:53;;;;;;;0.90;0.50;;;;;;;;;;6302854;28;20117;-64
2022/02/21 17:51:54;;;;;;;0.60;0.30;;;;;;;;;;6305740;28;20522;-63
2022/02/21 17:54:57;;;;;;;2.35;0.40;;;;;;;;;;6309423;28;20137;-63
2022/02/21 17:57:59;;;;;;;2.80;0.80;;;;;;;;;;6302978;28;20121;-65